createdAt,value
2023-03-27T00:02:06.249Z,0.68
2023-03-27T00:04:32.900Z,1.43
2023-03-27T00:06:59.639Z,1.38
2023-03-27T00:09:27.835Z,0.84
2023-03-27T00:11:56.287Z,1.29
2023-03-27T00:14:23.962Z,1.09
2023-03-27T00:16:51.172Z,1.09
2023-03-27T00:19:18.971Z,0.96
2023-03-27T00:21:45.810Z,0.98
2023-03-27T00:24:12.768Z,0.64
2023-03-27T00:26:40.794Z,0.24
2023-03-27T00:29:07.970Z,0.14
2023-03-27T00:31:35.069Z,0.74
2023-03-27T00:34:02.709Z,0.68
2023-03-27T00:36:29.327Z,0.67
2023-03-27T00:38:56.029Z,0.14
2023-03-27T00:41:23.390Z,0.49
2023-03-27T00:43:53.355Z,0.38
2023-03-27T00:46:38.746Z,0.59
2023-03-27T00:49:09.696Z,-0.02
2023-03-27T00:51:37.777Z,0.36
2023-03-27T00:54:06.155Z,0.26
2023-03-27T00:56:33.945Z,0.29
2023-03-27T00:59:03.390Z,-0.24
2023-03-27T01:01:32.112Z,0.39
2023-03-27T01:04:06.266Z,0.30
2023-03-27T01:06:33.739Z,0.18
2023-03-27T01:09:00.422Z,0.15
2023-03-27T01:11:51.205Z,0.25
2023-03-27T01:14:42.672Z,-0.48
2023-03-27T01:17:40.294Z,0.28
2023-03-27T01:20:30.180Z,0.26
2023-03-27T01:23:35.316Z,-0.46
2023-03-27T01:26:35.700Z,0.22
2023-03-27T01:29:28.145Z,-0.43
2023-03-27T01:32:17.570Z,0.21
2023-03-27T01:35:01.130Z,0.20
2023-03-27T01:37:52.305Z,-2.10
2023-03-27T01:40:27.884Z,0.14
2023-03-27T01:43:10.581Z,-0.09
2023-03-27T01:45:46.473Z,0.04
2023-03-27T01:48:25.912Z,-1.14
2023-03-27T01:50:57.424Z,-0.74
2023-03-27T01:53:40.628Z,-0.58
2023-03-27T01:56:26.081Z,-0.10
2023-03-27T01:58:59.290Z,0.09
2023-03-27T02:01:38.372Z,-0.23
2023-03-27T02:04:10.826Z,-0.98
2023-03-27T02:06:47.870Z,0.05
2023-03-27T02:09:43.312Z,-0.30
2023-03-27T02:12:16.463Z,-0.05
2023-03-27T02:15:22.997Z,0.20
2023-03-27T02:17:53.080Z,0.48
2023-03-27T02:20:20.915Z,-0.09
2023-03-27T02:22:50.519Z,0.74
2023-03-27T02:25:32.515Z,0.87
2023-03-27T02:28:12.560Z,1.12
2023-03-27T02:30:47.154Z,1.32
2023-03-27T02:34:05.535Z,1.49
2023-03-27T02:36:54.972Z,1.61
2023-03-27T02:39:50.708Z,1.76
2023-03-27T02:42:42.949Z,1.49
2023-03-27T02:45:47.915Z,2.12
2023-03-27T02:48:38.777Z,2.40
2023-03-27T02:51:15.323Z,2.59
2023-03-27T02:54:11.420Z,2.84
2023-03-27T02:56:44.757Z,2.61
2023-03-27T02:59:35.606Z,2.75
2023-03-27T03:02:09.562Z,2.87
2023-03-27T03:04:57.130Z,2.68
2023-03-27T03:07:30.069Z,2.83
2023-03-27T03:09:56.648Z,2.37
2023-03-27T03:12:23.279Z,2.59
2023-03-27T03:14:50.063Z,2.47
2023-03-27T03:17:16.908Z,1.85
2023-03-27T03:19:45.262Z,2.39
2023-03-27T03:22:13.045Z,1.89
2023-03-27T03:24:42.034Z,2.00
2023-03-27T03:27:10.728Z,1.71
2023-03-27T03:29:48.492Z,1.24
2023-03-27T03:32:18.439Z,1.60
2023-03-27T03:34:48.353Z,1.59
2023-03-27T03:37:15.724Z,1.57
2023-03-27T03:39:42.365Z,1.19
2023-03-27T03:42:09.024Z,1.35
2023-03-27T03:44:37.176Z,1.12
2023-03-27T03:47:22.685Z,0.57
2023-03-27T03:49:50.344Z,0.89
2023-03-27T03:52:17.466Z,1.00
2023-03-27T03:54:46.560Z,0.89
2023-03-27T03:57:13.488Z,0.82
2023-03-27T03:59:40.655Z,0.84
2023-03-27T04:02:37.535Z,0.31
2023-03-27T04:05:10.496Z,0.17
2023-03-27T04:07:39.900Z,0.77
2023-03-27T04:10:19.177Z,1.10
2023-03-27T04:12:48.488Z,1.16
2023-03-27T04:15:22.414Z,1.35
2023-03-27T04:18:08.138Z,1.01
2023-03-27T04:20:35.830Z,1.37
2023-03-27T04:23:04.734Z,1.85
2023-03-27T04:25:35.577Z,2.00
2023-03-27T04:28:02.500Z,2.30
2023-03-27T04:30:36.999Z,1.79
2023-03-27T04:33:22.972Z,2.43
2023-03-27T04:36:07.222Z,2.70
2023-03-27T04:38:53.185Z,2.84
2023-03-27T04:41:21.230Z,2.75
2023-03-27T04:43:47.876Z,2.19
2023-03-27T04:46:14.442Z,2.35
2023-03-27T04:48:43.000Z,2.54
2023-03-27T04:51:20.882Z,2.44
2023-03-27T04:53:48.161Z,1.74
2023-03-27T04:56:16.136Z,2.49
2023-03-27T04:58:45.695Z,2.16
2023-03-27T05:01:15.583Z,2.35
2023-03-27T05:04:02.501Z,2.38
2023-03-27T05:06:53.390Z,1.75
2023-03-27T05:09:21.689Z,2.16
2023-03-27T05:11:50.073Z,1.44
2023-03-27T05:14:22.084Z,1.83
2023-03-27T05:16:50.520Z,1.56
2023-03-27T05:19:19.362Z,1.51
2023-03-27T05:21:52.480Z,1.36
2023-03-27T05:24:19.506Z,1.18
2023-03-27T05:26:47.131Z,1.21
2023-03-27T05:29:15.308Z,1.24
2023-03-27T05:31:44.892Z,0.90
2023-03-27T05:34:50.707Z,0.14
2023-03-27T05:37:18.001Z,0.92
2023-03-27T05:40:17.046Z,0.99
2023-03-27T05:42:46.972Z,0.85
2023-03-27T05:45:14.096Z,0.81
2023-03-27T05:47:50.644Z,0.70
2023-03-27T05:50:19.154Z,0.73
2023-03-27T05:52:47.791Z,0.38
2023-03-27T05:55:17.366Z,0.87
2023-03-27T05:57:43.975Z,0.92
2023-03-27T06:00:16.357Z,0.71
2023-03-27T06:02:44.868Z,0.86
2023-03-27T06:05:15.288Z,0.79
2023-03-27T06:07:50.702Z,1.41
2023-03-27T06:10:20.166Z,1.79
2023-03-27T06:13:13.839Z,2.02
2023-03-27T06:15:54.349Z,1.68
2023-03-27T06:18:43.793Z,1.71
2023-03-27T06:21:13.484Z,1.90
2023-03-27T06:23:40.178Z,2.35
2023-03-27T06:26:12.673Z,2.54
2023-03-27T06:28:40.396Z,2.56
2023-03-27T06:31:08.425Z,2.89
2023-03-27T06:33:41.085Z,2.81
2023-03-27T06:36:18.172Z,3.00
2023-03-27T06:38:47.429Z,2.76
2023-03-27T06:41:14.587Z,2.95
2023-03-27T06:44:16.648Z,3.56
2023-03-27T06:47:10.092Z,3.29
2023-03-27T06:50:07.462Z,4.21
2023-03-27T06:52:34.361Z,4.32
2023-03-27T06:55:20.234Z,4.50
2023-03-27T06:57:55.396Z,4.54
2023-03-27T07:00:25.832Z,5.11
2023-03-27T07:03:13.354Z,5.26
2023-03-27T07:05:56.826Z,5.82
2023-03-27T07:08:26.897Z,6.08
2023-03-27T07:11:10.570Z,6.77
2023-03-27T07:13:41.611Z,7.08
2023-03-27T07:16:15.652Z,6.96
2023-03-27T07:18:42.400Z,6.98
2023-03-27T07:21:09.257Z,7.24
2023-03-27T07:23:35.904Z,7.42
2023-03-27T07:26:05.996Z,7.05
2023-03-27T07:29:10.944Z,7.49
2023-03-27T07:31:55.904Z,7.15
2023-03-27T07:34:49.105Z,6.99
2023-03-27T07:37:38.107Z,7.25
2023-03-27T07:40:40.510Z,8.25
2023-03-27T07:43:26.120Z,8.13
2023-03-27T07:45:53.021Z,8.85
2023-03-27T07:48:19.630Z,8.51
2023-03-27T07:50:47.999Z,8.81
2023-03-27T07:53:33.553Z,8.98
2023-03-27T07:56:10.875Z,9.13
2023-03-27T07:58:38.930Z,9.09
2023-03-27T08:01:06.207Z,8.95
2023-03-27T08:03:34.212Z,8.80
2023-03-27T08:06:01.334Z,9.38
2023-03-27T08:08:30.685Z,8.94
2023-03-27T08:11:01.686Z,9.08
2023-03-27T08:13:35.640Z,9.53
2023-03-27T08:16:10.399Z,9.71
2023-03-27T08:18:37.894Z,9.87
2023-03-27T08:21:08.400Z,9.98
2023-03-27T08:23:37.530Z,9.67
2023-03-27T08:26:22.491Z,9.84
2023-03-27T08:28:56.903Z,9.83
2023-03-27T08:31:30.467Z,9.89
2023-03-27T08:34:01.765Z,9.94
2023-03-27T08:36:40.132Z,10.46
2023-03-27T08:39:08.171Z,9.16
2023-03-27T08:41:51.575Z,8.58
2023-03-27T08:44:30.780Z,8.08
2023-03-27T08:47:04.370Z,9.06
2023-03-27T08:49:42.107Z,9.30
2023-03-27T08:52:32.677Z,9.60
2023-03-27T08:55:06.797Z,10.22
2023-03-27T08:57:38.347Z,10.54
2023-03-27T09:00:21.201Z,10.74
2023-03-27T09:02:57.501Z,11.61
2023-03-27T09:05:40.805Z,11.61
2023-03-27T09:08:32.149Z,11.99
2023-03-27T09:11:24.853Z,12.29
2023-03-27T09:13:57.700Z,11.92
2023-03-27T09:16:39.654Z,12.28
2023-03-27T09:19:17.156Z,12.87
2023-03-27T09:21:51.249Z,12.97
2023-03-27T09:24:41.694Z,12.29
2023-03-27T09:27:37.714Z,12.93
2023-03-27T09:30:29.983Z,13.21
2023-03-27T09:33:12.280Z,11.81
2023-03-27T09:35:42.245Z,10.58
2023-03-27T09:38:31.955Z,9.19
2023-03-27T09:41:12.866Z,8.84
2023-03-27T09:43:59.853Z,8.30
2023-03-27T09:46:28.297Z,8.45
2023-03-27T09:49:09.529Z,10.13
2023-03-27T09:51:51.608Z,10.54
2023-03-27T09:54:52.142Z,11.65
2023-03-27T09:57:21.120Z,12.55
2023-03-27T10:00:09.437Z,13.16
2023-03-27T10:02:41.609Z,13.30
2023-03-27T10:05:20.106Z,14.01
2023-03-27T10:07:52.086Z,14.36
2023-03-27T10:10:45.685Z,13.22
2023-03-27T10:13:27.235Z,12.12
2023-03-27T10:16:04.454Z,11.85
2023-03-27T10:18:44.181Z,11.32
2023-03-27T10:21:26.122Z,12.00
2023-03-27T10:24:18.729Z,12.76
2023-03-27T10:27:12.077Z,13.47
2023-03-27T10:29:45.765Z,13.91
2023-03-27T10:32:14.785Z,14.46
2023-03-27T10:34:55.651Z,14.20
2023-03-27T10:37:41.550Z,12.22
2023-03-27T10:40:43.126Z,10.89
2023-03-27T10:43:32.981Z,11.12
2023-03-27T10:46:06.329Z,11.95
2023-03-27T10:48:53.489Z,13.79
2023-03-27T10:51:45.860Z,13.64
2023-03-27T10:54:21.132Z,12.09
2023-03-27T10:57:12.468Z,11.34
2023-03-27T10:59:51.580Z,10.89
2023-03-27T11:02:34.186Z,10.25
2023-03-27T11:05:39.458Z,11.87
2023-03-27T11:08:51.303Z,12.53
2023-03-27T11:11:27.552Z,13.37
2023-03-27T11:14:02.366Z,13.83
2023-03-27T11:16:41.023Z,13.87
2023-03-27T11:19:52.585Z,13.66
2023-03-27T11:23:04.605Z,14.56
2023-03-27T11:25:46.467Z,15.27
2023-03-27T11:28:55.008Z,15.40
2023-03-27T11:31:40.891Z,15.78
2023-03-27T11:34:34.026Z,15.09
2023-03-27T11:37:51.672Z,15.38
2023-03-27T11:40:20.272Z,15.52
2023-03-27T11:42:50.984Z,15.46
2023-03-27T11:45:23.459Z,15.43
2023-03-27T11:48:16.376Z,16.02
2023-03-27T11:51:15.756Z,14.49
2023-03-27T11:54:24.275Z,13.88
2023-03-27T11:56:57.967Z,11.64
2023-03-27T12:00:27.580Z,10.17
2023-03-27T12:03:25.871Z,8.54
2023-03-27T12:06:20.841Z,7.53
2023-03-27T12:09:17.800Z,6.13
2023-03-27T12:12:25.446Z,6.39
2023-03-27T12:14:52.140Z,8.62
2023-03-27T12:17:44.667Z,8.37
2023-03-27T12:20:29.637Z,7.70
2023-03-27T12:23:30.527Z,7.27
2023-03-27T12:26:35.132Z,7.14
2023-03-27T12:29:39.623Z,7.63
2023-03-27T12:32:08.160Z,10.80
2023-03-27T12:34:43.884Z,12.58
2023-03-27T12:37:13.662Z,13.90
2023-03-27T12:39:53.929Z,15.05
2023-03-27T12:42:43.893Z,14.98
2023-03-27T12:45:19.522Z,12.13
2023-03-27T12:48:11.651Z,10.69
2023-03-27T12:50:53.589Z,10.07
2023-03-27T12:53:50.970Z,9.49
2023-03-27T12:56:17.727Z,10.82
2023-03-27T12:58:51.459Z,12.46
2023-03-27T13:01:51.859Z,13.86
2023-03-27T13:04:24.873Z,14.43
2023-03-27T13:07:00.133Z,14.79
2023-03-27T13:10:07.585Z,14.98
2023-03-27T13:12:57.507Z,15.04
2023-03-27T13:15:50.093Z,15.41
2023-03-27T13:19:10.434Z,15.66
2023-03-27T13:22:06.044Z,16.67
2023-03-27T13:24:50.351Z,16.36
2023-03-27T13:27:37.898Z,17.41
2023-03-27T13:30:05.758Z,17.05
2023-03-27T13:33:30.117Z,16.26
2023-03-27T13:35:57.572Z,15.98
2023-03-27T13:38:53.189Z,13.99
2023-03-27T13:41:45.684Z,11.97
2023-03-27T13:44:30.877Z,10.97
2023-03-27T13:47:09.856Z,10.24
2023-03-27T13:49:46.067Z,10.26
2023-03-27T13:52:46.465Z,9.70
2023-03-27T13:55:17.145Z,9.50
2023-03-27T13:58:31.205Z,9.21
2023-03-27T14:01:07.742Z,9.31
2023-03-27T14:04:23.862Z,11.66
2023-03-27T14:07:38.232Z,13.15
2023-03-27T14:10:34.383Z,13.88
2023-03-27T14:13:22.611Z,13.78
2023-03-27T14:16:03.203Z,14.15
2023-03-27T14:19:19.560Z,14.67
2023-03-27T14:22:24.197Z,14.74
2023-03-27T14:25:12.428Z,15.30
2023-03-27T14:27:48.776Z,15.06
2023-03-27T14:30:21.552Z,16.56
2023-03-27T14:33:06.451Z,16.67
2023-03-27T14:35:38.027Z,17.51
2023-03-27T14:38:35.938Z,17.65
2023-03-27T14:41:05.914Z,16.33
2023-03-27T14:43:52.283Z,15.33
2023-03-27T14:46:22.797Z,15.20
2023-03-27T14:48:57.968Z,15.30
2023-03-27T14:51:37.622Z,13.27
2023-03-27T14:54:26.463Z,12.45
2023-03-27T14:57:00.238Z,11.69
2023-03-27T14:59:29.887Z,12.96
2023-03-27T15:02:04.342Z,13.41
2023-03-27T15:04:33.370Z,13.79
2023-03-27T15:07:18.757Z,13.61
2023-03-27T15:10:28.142Z,12.08
2023-03-27T15:13:34.052Z,12.39
2023-03-27T15:16:00.992Z,11.99
2023-03-27T15:18:33.312Z,11.28
2023-03-27T15:21:14.408Z,9.64
2023-03-27T15:24:10.707Z,9.01
2023-03-27T15:26:39.269Z,8.01
2023-03-27T15:29:42.888Z,8.03
2023-03-27T15:32:18.806Z,7.85
2023-03-27T15:34:51.216Z,7.49
2023-03-27T15:37:25.430Z,6.26
2023-03-27T15:39:59.386Z,6.70
2023-03-27T15:42:32.643Z,5.90
2023-03-27T15:45:03.119Z,6.58
2023-03-27T15:47:31.370Z,6.16
2023-03-27T15:50:16.829Z,7.15
2023-03-27T15:52:48.415Z,9.26
2023-03-27T15:55:33.091Z,11.27
2023-03-27T15:58:00.244Z,11.78
2023-03-27T16:00:28.863Z,12.72
2023-03-27T16:02:56.339Z,13.56
2023-03-27T16:05:23.161Z,13.33
2023-03-27T16:07:49.962Z,14.06
2023-03-27T16:10:31.849Z,14.61
2023-03-27T16:13:02.794Z,12.71
2023-03-27T16:15:35.909Z,11.17
2023-03-27T16:18:15.926Z,9.88
2023-03-27T16:20:45.227Z,9.28
2023-03-27T16:23:11.884Z,8.79
2023-03-27T16:25:39.006Z,8.10
2023-03-27T16:28:07.751Z,7.70
2023-03-27T16:30:38.711Z,6.95
2023-03-27T16:33:17.079Z,7.06
2023-03-27T16:35:45.809Z,8.57
2023-03-27T16:38:14.266Z,9.14
2023-03-27T16:40:41.158Z,7.68
2023-03-27T16:43:07.861Z,6.81
2023-03-27T16:45:34.752Z,6.79
2023-03-27T16:48:01.546Z,6.46
2023-03-27T16:50:29.691Z,5.69
2023-03-27T16:52:56.938Z,6.29
2023-03-27T16:55:24.100Z,7.59
2023-03-27T16:57:52.440Z,8.17
2023-03-27T17:00:20.083Z,8.60
2023-03-27T17:02:47.068Z,9.48
2023-03-27T17:05:14.644Z,9.07
2023-03-27T17:07:41.857Z,7.85
2023-03-27T17:10:10.183Z,7.74
2023-03-27T17:12:36.916Z,7.24
2023-03-27T17:15:04.005Z,6.30
2023-03-27T17:17:30.846Z,6.82
2023-03-27T17:19:57.587Z,6.88
2023-03-27T17:22:26.354Z,6.68
2023-03-27T17:24:56.818Z,6.60
2023-03-27T17:27:26.316Z,6.12
2023-03-27T17:29:55.465Z,6.12
2023-03-27T17:32:22.575Z,6.48
2023-03-27T17:34:50.832Z,6.29
2023-03-27T17:37:18.802Z,5.97
2023-03-27T17:39:45.375Z,5.41
2023-03-27T17:42:12.005Z,5.35
2023-03-27T17:44:39.582Z,5.75
2023-03-27T17:47:07.541Z,5.69
2023-03-27T17:49:34.832Z,5.72
2023-03-27T17:52:07.562Z,5.28
2023-03-27T17:54:34.842Z,5.41
2023-03-27T17:57:01.916Z,5.21
2023-03-27T17:59:30.899Z,4.70
2023-03-27T18:01:58.398Z,5.02
2023-03-27T18:04:25.209Z,4.64
2023-03-27T18:06:52.447Z,4.73
2023-03-27T18:09:19.349Z,4.72
2023-03-27T18:11:46.035Z,4.83
2023-03-27T18:14:12.766Z,4.61
2023-03-27T18:16:39.424Z,4.65
2023-03-27T18:19:06.071Z,4.13
2023-03-27T18:21:32.704Z,4.56
2023-03-27T18:24:01.730Z,4.57
2023-03-27T18:26:28.495Z,4.27
2023-03-27T18:28:55.232Z,5.08
2023-03-27T18:31:21.911Z,4.86
2023-03-27T18:33:48.711Z,4.84
2023-03-27T18:36:15.364Z,4.91
2023-03-27T18:38:42.433Z,4.87
2023-03-27T18:41:10.483Z,4.53
2023-03-27T18:43:37.325Z,4.89
2023-03-27T18:46:06.018Z,4.78
2023-03-27T18:48:33.379Z,4.61
2023-03-27T18:51:02.624Z,4.75
2023-03-27T18:53:30.294Z,4.43
2023-03-27T18:55:58.412Z,4.61
2023-03-27T18:58:27.626Z,4.60
2023-03-27T19:00:55.688Z,4.38
2023-03-27T19:03:24.997Z,4.17
2023-03-27T19:05:52.825Z,4.11
2023-03-27T19:08:21.247Z,3.97
2023-03-27T19:10:48.271Z,3.67
2023-03-27T19:13:24.625Z,3.42
2023-03-27T19:16:19.921Z,3.95
2023-03-27T19:19:15.551Z,3.56
2023-03-27T19:21:51.136Z,3.35
2023-03-27T19:24:31.122Z,3.18
2023-03-27T19:26:58.819Z,3.31
2023-03-27T19:29:25.763Z,3.35
2023-03-27T19:31:53.426Z,3.02
2023-03-27T19:34:32.690Z,2.46
2023-03-27T19:37:08.416Z,2.88
2023-03-27T19:39:35.150Z,3.07
2023-03-27T19:42:02.104Z,2.38
2023-03-27T19:44:28.762Z,2.97
2023-03-27T19:46:55.507Z,2.99
2023-03-27T19:49:22.153Z,2.61
2023-03-27T19:52:04.355Z,2.60
2023-03-27T19:54:31.384Z,2.86
2023-03-27T19:56:58.201Z,2.61
2023-03-27T19:59:30.722Z,2.03
2023-03-27T20:01:58.419Z,1.91
2023-03-27T20:04:25.397Z,2.40
2023-03-27T20:06:52.131Z,2.40
2023-03-27T20:09:19.231Z,2.67
2023-03-27T20:11:46.675Z,2.04
2023-03-27T20:14:13.703Z,2.16
2023-03-27T20:16:40.495Z,2.76
2023-03-27T20:19:09.220Z,2.53
2023-03-27T20:21:39.009Z,2.24
2023-03-27T20:24:10.668Z,2.46
2023-03-27T20:26:41.811Z,2.46
2023-03-27T20:29:18.428Z,2.08
2023-03-27T20:31:46.356Z,1.65
2023-03-27T20:34:13.076Z,1.71
2023-03-27T20:36:43.367Z,1.88
2023-03-27T20:39:34.764Z,1.79
2023-03-27T20:42:01.422Z,1.85
2023-03-27T20:44:35.974Z,1.51
2023-03-27T20:47:03.497Z,1.66
2023-03-27T20:49:40.855Z,1.64
2023-03-27T20:52:09.972Z,1.35
2023-03-27T20:54:36.826Z,1.28
2023-03-27T20:57:03.807Z,1.19
2023-03-27T20:59:31.056Z,1.28
2023-03-27T21:01:59.333Z,0.94
2023-03-27T21:04:28.344Z,0.92
2023-03-27T21:06:55.603Z,0.80
2023-03-27T21:09:23.436Z,0.62
2023-03-27T21:11:53.439Z,0.96
2023-03-27T21:14:20.565Z,0.73
2023-03-27T21:16:47.654Z,0.51
2023-03-27T21:19:14.471Z,0.07
2023-03-27T21:21:41.282Z,0.56
2023-03-27T21:24:08.009Z,0.63
2023-03-27T21:26:35.303Z,0.56
2023-03-27T21:29:03.290Z,0.54
2023-03-27T21:31:30.695Z,0.31
2023-03-27T21:33:57.876Z,0.48
2023-03-27T21:36:26.419Z,0.27
2023-03-27T21:38:54.596Z,0.00
2023-03-27T21:41:21.672Z,0.12
2023-03-27T21:43:48.257Z,0.37
2023-03-27T21:46:14.989Z,0.25
2023-03-27T21:48:44.005Z,-0.01
2023-03-27T21:51:10.924Z,0.21
2023-03-27T21:53:37.648Z,0.05
2023-03-27T21:56:04.536Z,-0.13
2023-03-27T21:58:31.194Z,0.20
2023-03-27T22:00:58.437Z,0.16
2023-03-27T22:03:26.899Z,0.11
2023-03-27T22:06:07.755Z,0.09
2023-03-27T22:08:36.696Z,0.00
2023-03-27T22:11:03.473Z,0.17
2023-03-27T22:13:30.201Z,-0.13
2023-03-27T22:15:57.141Z,-0.10
2023-03-27T22:18:24.796Z,-0.57
2023-03-27T22:20:51.453Z,0.07
2023-03-27T22:23:18.059Z,-0.01
2023-03-27T22:25:52.138Z,-0.14
2023-03-27T22:28:18.679Z,-0.16
2023-03-27T22:30:45.397Z,-0.20
2023-03-27T22:33:11.950Z,-0.57
2023-03-27T22:35:38.679Z,-0.10
2023-03-27T22:38:05.254Z,-0.06
2023-03-27T22:40:31.872Z,-0.08
2023-03-27T22:42:58.516Z,-0.03
2023-03-27T22:45:25.228Z,-0.06
2023-03-27T22:47:51.984Z,-0.14
2023-03-27T22:50:18.543Z,-0.63
2023-03-27T22:52:45.356Z,-0.41
2023-03-27T22:55:11.953Z,-0.24
2023-03-27T22:57:38.617Z,-0.27
2023-03-27T23:00:06.888Z,-0.39
2023-03-27T23:02:33.741Z,-0.29
2023-03-27T23:05:00.732Z,-0.47
2023-03-27T23:07:31.723Z,-0.51
2023-03-27T23:09:58.342Z,-0.54
2023-03-27T23:12:24.900Z,-0.64
2023-03-27T23:14:51.698Z,-0.64
2023-03-27T23:17:18.379Z,-1.13
2023-03-27T23:19:46.152Z,-0.48
2023-03-27T23:22:12.778Z,-0.40
2023-03-27T23:24:39.440Z,-0.34
2023-03-27T23:27:08.313Z,-0.44
2023-03-27T23:29:35.311Z,-0.57
2023-03-27T23:32:01.978Z,-0.47
2023-03-27T23:34:28.738Z,-0.52
2023-03-27T23:36:55.422Z,-0.40
2023-03-27T23:39:22.067Z,-1.18
2023-03-27T23:41:48.682Z,-0.73
2023-03-27T23:44:15.351Z,-1.00
2023-03-27T23:46:41.888Z,-0.79
2023-03-27T23:49:08.468Z,-0.46
2023-03-27T23:51:35.139Z,-0.82
2023-03-27T23:54:01.738Z,-0.42
2023-03-27T23:56:28.413Z,-0.54
2023-03-27T23:58:55.108Z,-0.79
